Time;durP1;ratioP1;P1;durP2;ratioP2;P2;SDS_P1;SDS_P2;PMS_P1;PMS_P2;Temp;Humidity;BMP_temperature;BMP_pressure;BME280_temperature;BME280_humidity;BME280_pressure;Samples;Min_cycle;Max_cycle;Signal;HPM_P1;HPM_P2
2023/12/08 00:01:20;;;;;;;21.05;17.80;;;;;;;1.61;100.00;100678.59;5061370;28;20024;-80
2023/12/08 00:03:45;;;;;;;19.95;17.83;;;;;;;1.62;100.00;100667.34;5046049;28;20196;-80
2023/12/08 00:06:10;;;;;;;22.83;18.48;;;;;;;1.62;100.00;100675.09;5047999;28;20393;-81
2023/12/08 00:08:37;;;;;;;22.58;18.05;;;;;;;1.64;100.00;100673.31;5041710;28;20650;-80
2023/12/08 00:11:03;;;;;;;21.60;18.33;;;;;;;1.62;100.00;100664.75;5047109;28;20095;-79
2023/12/08 00:13:28;;;;;;;21.38;18.33;;;;;;;1.63;100.00;100661.25;5047736;28;20083;-78
2023/12/08 00:15:54;;;;;;;21.30;19.00;;;;;;;1.64;100.00;100660.34;5038885;28;20021;-79
2023/12/08 00:18:21;;;;;;;24.75;18.55;;;;;;;1.63;100.00;100658.66;5027511;28;20397;-80
2023/12/08 00:20:46;;;;;;;21.70;18.25;;;;;;;1.63;100.00;100657.81;5046847;28;20123;-80
2023/12/08 00:23:12;;;;;;;21.58;18.52;;;;;;;1.63;100.00;100663.00;5047608;28;20475;-80
2023/12/08 00:25:37;;;;;;;22.35;19.00;;;;;;;1.65;100.00;100663.78;5047416;28;20083;-80
2023/12/08 00:28:03;;;;;;;21.65;18.45;;;;;;;1.65;100.00;100656.84;5045948;28;20489;-80
2023/12/08 00:30:29;;;;;;;21.05;18.73;;;;;;;1.66;100.00;100653.34;5043583;28;20056;-80
2023/12/08 00:32:54;;;;;;;20.65;18.30;;;;;;;1.68;100.00;100653.28;5043589;28;20033;-80
2023/12/08 00:35:21;;;;;;;22.98;19.45;;;;;;;1.67;100.00;100644.66;5036138;28;20435;-80
2023/12/08 00:37:46;;;;;;;22.23;18.85;;;;;;;1.68;100.00;100635.13;5046890;28;20033;-80
2023/12/08 00:40:12;;;;;;;21.85;19.02;;;;;;;1.70;100.00;100641.94;5057349;28;20409;-80
2023/12/08 00:42:37;;;;;;;25.33;20.17;;;;;;;1.70;100.00;100634.16;5072018;28;20428;-80
2023/12/08 00:45:04;;;;;;;22.35;19.67;;;;;;;1.71;100.00;100632.41;5053591;28;20037;-80
2023/12/08 00:47:30;;;;;;;22.17;19.77;;;;;;;1.72;100.00;100632.34;5050702;28;20128;-80
2023/12/08 00:49:55;;;;;;;22.15;19.23;;;;;;;1.74;100.00;100630.53;5053049;28;20525;-81
2023/12/08 00:52:20;;;;;;;22.23;19.02;;;;;;;1.74;100.00;100630.53;5042524;28;20374;-80
2023/12/08 00:54:47;;;;;;;21.98;19.17;;;;;;;1.78;100.00;100628.63;5034208;28;20025;-80
2023/12/08 00:57:12;;;;;;;22.25;18.63;;;;;;;1.78;100.00;100620.84;5036653;28;20052;-80
2023/12/08 00:59:37;;;;;;;25.13;19.45;;;;;;;1.79;100.00;100622.53;5039021;28;20078;-80
2023/12/08 01:02:03;;;;;;;21.67;18.55;;;;;;;1.80;100.00;100611.25;5052220;28;20028;-81
2023/12/08 01:04:29;;;;;;;21.70;18.88;;;;;;;1.81;100.00;100610.34;5049674;28;20017;-81
2023/12/08 01:06:54;;;;;;;23.27;18.52;;;;;;;1.81;100.00;100606.00;5048157;28;20513;-81
2023/12/08 01:09:19;;;;;;;21.33;19.02;;;;;;;1.82;100.00;100605.09;5049414;28;20049;-81
2023/12/08 01:11:45;;;;;;;20.88;18.67;;;;;;;1.84;100.00;100603.28;5051121;28;20657;-81
2023/12/08 01:14:10;;;;;;;21.23;19.00;;;;;;;1.84;100.00;100594.66;5037400;28;20033;-81
2023/12/08 01:16:41;;;;;;;21.70;18.38;;;;;;;1.86;100.00;100604.06;5043062;28;20688;-81
2023/12/08 01:19:08;;;;;;;21.33;18.77;;;;;;;1.87;100.00;100597.13;5029573;28;20025;-80
2023/12/08 01:21:38;;;;;;;20.70;18.50;;;;;;;1.85;100.00;100594.59;5046600;28;20032;-81
2023/12/08 01:24:04;;;;;;;21.33;18.33;;;;;;;1.85;100.00;100586.81;5048509;28;20400;-80
2023/12/08 01:26:30;;;;;;;23.15;17.98;;;;;;;1.87;100.00;100585.00;5044633;28;20074;-81
2023/12/08 01:28:55;;;;;;;20.05;17.55;;;;;;;1.87;100.00;100585.00;5047862;28;20493;-81
2023/12/08 01:31:21;;;;;;;20.88;18.60;;;;;;;1.88;100.00;100581.50;5040417;28;20027;-80
2023/12/08 01:33:47;;;;;;;21.08;18.88;;;;;;;1.87;100.00;100576.38;5047134;28;20477;-80
2023/12/08 01:36:12;;;;;;;20.45;18.25;;;;;;;1.87;100.00;100573.78;5049048;28;20028;-80
2023/12/08 01:38:37;;;;;;;21.15;18.85;;;;;;;1.87;100.00;100576.38;5050508;28;20025;-80
2023/12/08 01:41:03;;;;;;;19.90;17.80;;;;;;;1.86;100.00;100570.34;5066747;28;20024;-80
2023/12/08 01:43:28;;;;;;;21.60;18.45;;;;;;;1.84;100.00;100569.56;5062441;28;20025;-79
2023/12/08 01:45:58;;;;;;;22.08;18.60;;;;;;;1.84;100.00;100568.72;5049654;28;20115;-79
2023/12/08 01:48:24;;;;;;;23.00;20.52;;;;;;;1.82;100.00;100565.34;5039866;28;20087;-79
2023/12/08 01:50:50;;;;;;;23.40;19.95;;;;;;;1.82;100.00;100560.16;5033834;28;20022;-79
2023/12/08 01:53:15;;;;;;;22.65;18.80;;;;;;;1.80;100.00;100562.84;5030238;28;20044;-80
2023/12/08 01:55:41;;;;;;;21.40;19.20;;;;;;;1.81;100.00;100561.06;5030726;28;20465;-79
2023/12/08 01:58:08;;;;;;;21.27;18.58;;;;;;;1.79;100.00;100561.16;5029947;28;20053;-79
2023/12/08 02:00:33;;;;;;;21.40;18.73;;;;;;;1.78;100.00;100562.06;5041895;28;20469;-79
2023/12/08 02:02:59;;;;;;;22.10;19.75;;;;;;;1.79;100.00;100565.50;5047790;28;20120;-79
2023/12/08 02:05:26;;;;;;;22.90;19.15;;;;;;;1.77;100.00;100556.94;5044057;28;20083;-80
2023/12/08 02:07:53;;;;;;;21.75;18.92;;;;;;;1.76;100.00;100556.09;5044819;28;20040;-80
2023/12/08 02:10:19;;;;;;;22.95;19.90;;;;;;;1.74;100.00;100552.72;5029818;28;20061;-81
2023/12/08 02:12:45;;;;;;;22.27;18.60;;;;;;;1.74;100.00;100541.50;5029631;28;20595;-80
2023/12/08 02:15:12;;;;;;;23.00;19.77;;;;;;;1.72;100.00;100538.97;5028445;28;20044;-80
2023/12/08 02:17:38;;;;;;;22.08;19.73;;;;;;;1.71;100.00;100537.28;5029080;28;20105;-80
2023/12/08 02:20:10;;;;;;;23.00;19.80;;;;;;;1.69;100.00;100522.72;5043399;28;20088;-80
2023/12/08 02:22:36;;;;;;;21.77;19.35;;;;;;;1.67;100.00;100515.00;5047301;28;20048;-80
2023/12/08 02:25:02;;;;;;;22.13;19.75;;;;;;;1.65;100.00;100516.81;5038774;28;20025;-81
2023/12/08 02:27:28;;;;;;;22.67;19.85;;;;;;;1.66;100.00;100512.47;5040039;28;20021;-80
2023/12/08 02:29:54;;;;;;;21.33;19.13;;;;;;;1.65;100.00;100518.56;5046958;28;20024;-81
2023/12/08 02:32:35;;;;;;;22.42;20.00;;;;;;;1.64;100.00;100522.91;5046767;28;20025;-80
2023/12/08 02:35:04;;;;;;;22.15;19.80;;;;;;;1.62;100.00;100532.50;5046432;28;20032;-80
2023/12/08 02:37:35;;;;;;;22.17;19.88;;;;;;;1.63;100.00;100530.75;5046292;28;20171;-82
2023/12/08 02:40:02;;;;;;;22.63;20.15;;;;;;;1.62;100.00;100527.31;5057803;28;20032;-80
2023/12/08 02:42:28;;;;;;;24.65;20.92;;;;;;;1.62;100.00;100527.31;5052506;28;20120;-82
2023/12/08 02:44:53;;;;;;;23.90;21.23;;;;;;;1.61;100.00;100510.06;5030675;28;20105;-82
2023/12/08 02:47:19;;;;;;;23.88;20.83;;;;;;;1.61;100.00;100523.03;5046375;28;20453;-82
2023/12/08 02:49:44;;;;;;;23.15;20.63;;;;;;;1.59;100.00;100519.63;5049171;28;20107;-80
2023/12/08 02:52:09;;;;;;;24.02;21.42;;;;;;;1.61;100.00;100519.59;5048552;28;20029;-80
2023/12/08 02:54:35;;;;;;;23.52;20.60;;;;;;;1.59;100.00;100522.22;5049796;28;20099;-80
2023/12/08 02:57:00;;;;;;;24.15;21.08;;;;;;;1.61;100.00;100525.63;5049474;28;20048;-80
2023/12/08 02:59:25;;;;;;;27.08;22.27;;;;;;;1.61;100.00;100529.97;5046771;28;20123;-80
2023/12/08 03:01:51;;;;;;;24.45;21.85;;;;;;;1.62;100.00;100522.13;5033781;28;20117;-81
2023/12/08 03:04:16;;;;;;;25.33;21.75;;;;;;;1.60;100.00;100529.09;5030390;28;20028;-81
2023/12/08 03:06:42;;;;;;;24.23;21.58;;;;;;;1.61;100.00;100529.97;5046835;28;20087;-81
2023/12/08 03:09:07;;;;;;;23.73;21.30;;;;;;;1.61;100.00;100529.97;5048462;28;20041;-81
2023/12/08 03:11:32;;;;;;;24.75;22.15;;;;;;;1.63;100.00;100535.94;5048313;28;20116;-81
2023/12/08 03:13:58;;;;;;;26.48;22.58;;;;;;;1.62;100.00;100529.91;5049467;28;20074;-81
2023/12/08 03:16:23;;;;;;;25.83;22.85;;;;;;;1.61;100.00;100522.19;5039925;28;20041;-81
2023/12/08 03:18:49;;;;;;;29.00;22.50;;;;;;;1.61;100.00;100527.38;5037541;28;20033;-81
2023/12/08 03:21:24;;;;;;;26.08;22.90;;;;;;;1.62;100.00;100521.28;5028203;28;20056;-82
2023/12/08 03:23:49;;;;;;;27.13;24.10;;;;;;;1.60;100.00;100513.53;5045772;28;20032;-80
2023/12/08 03:26:14;;;;;;;28.52;23.60;;;;;;;1.60;100.00;100513.53;5047181;28;20032;-81
2023/12/08 03:28:40;;;;;;;27.35;23.17;;;;;;;1.58;100.00;100511.03;5047185;28;20082;-81
2023/12/08 03:31:05;;;;;;;26.90;23.02;;;;;;;1.60;100.00;100516.13;5046347;28;20361;-80
2023/12/08 03:33:30;;;;;;;28.63;24.33;;;;;;;1.60;100.00;100508.34;5041304;28;20021;-80
2023/12/08 03:35:56;;;;;;;28.23;23.63;;;;;;;1.59;100.00;100509.25;5036100;28;20021;-80
2023/12/08 03:38:21;;;;;;;27.17;24.00;;;;;;;1.61;100.00;100519.59;5046630;28;20049;-80
2023/12/08 03:40:47;;;;;;;29.27;24.50;;;;;;;1.62;100.00;100516.09;5062499;28;20653;-80
2023/12/08 03:43:12;;;;;;;26.67;23.88;;;;;;;1.62;100.00;100516.09;5068362;28;20031;-81
2023/12/08 03:45:37;;;;;;;27.42;23.98;;;;;;;1.63;100.00;100517.78;5047628;28;20043;-81
2023/12/08 03:48:03;;;;;;;27.08;24.00;;;;;;;1.62;100.00;100509.16;5047732;28;20465;-81
2023/12/08 03:50:28;;;;;;;28.38;23.27;;;;;;;1.62;100.00;100506.56;5047593;28;20025;-81
2023/12/08 03:52:54;;;;;;;30.23;24.63;;;;;;;1.63;100.00;100502.22;5038860;28;20029;-80
2023/12/08 03:55:21;;;;;;;28.65;24.63;;;;;;;1.62;100.00;100505.72;5029291;28;20104;-80
2023/12/08 03:57:47;;;;;;;27.35;24.33;;;;;;;1.64;100.00;100504.75;5029526;28;20032;-80
2023/12/08 04:00:12;;;;;;;26.88;23.98;;;;;;;1.64;100.00;100498.72;5045046;28;20024;-81
2023/12/08 04:02:38;;;;;;;28.70;24.13;;;;;;;1.64;100.00;100493.53;5032438;28;20034;-81
2023/12/08 04:05:04;;;;;;;31.83;25.50;;;;;;;1.61;100.00;100491.94;5041858;28;20074;-81
2023/12/08 04:07:29;;;;;;;27.55;24.52;;;;;;;1.64;100.00;100486.59;5046687;28;20111;-81
2023/12/08 04:09:54;;;;;;;29.65;24.50;;;;;;;1.64;100.00;100472.81;5040384;28;20053;-80
2023/12/08 04:12:20;;;;;;;29.20;25.40;;;;;;;1.64;100.00;100472.81;5029896;28;20025;-81
2023/12/08 04:14:46;;;;;;;30.40;25.60;;;;;;;1.60;100.00;100461.69;5039237;28;20028;-80
2023/12/08 04:17:11;;;;;;;29.08;25.70;;;;;;;1.58;100.00;100469.53;5050093;28;20024;-80
2023/12/08 04:19:37;;;;;;;31.70;25.65;;;;;;;1.59;100.00;100465.19;5052526;28;20362;-81
2023/12/08 04:22:03;;;;;;;30.73;26.10;;;;;;;1.59;100.00;100488.53;5050814;28;20021;-80
2023/12/08 04:24:28;;;;;;;31.63;25.55;;;;;;;1.60;100.00;100503.16;5048960;28;20527;-81
2023/12/08 04:26:54;;;;;;;30.80;26.25;;;;;;;1.61;100.00;100484.16;5048728;28;20104;-81
2023/12/08 04:29:19;;;;;;;29.42;25.33;;;;;;;1.63;100.00;100487.50;5043294;28;20025;-80
2023/12/08 04:31:45;;;;;;;30.20;24.98;;;;;;;1.62;100.00;100485.81;5032000;28;20033;-81
2023/12/08 04:34:10;;;;;;;31.02;24.88;;;;;;;1.64;100.00;100499.56;5030273;28;20120;-81
2023/12/08 04:36:35;;;;;;;29.63;25.77;;;;;;;1.65;100.00;100483.09;5029865;28;20104;-81
2023/12/08 04:39:01;;;;;;;30.15;25.25;;;;;;;1.64;100.00;100477.97;5030792;28;20502;-81
2023/12/08 04:41:26;;;;;;;28.25;24.15;;;;;;;1.65;100.00;100470.13;5068122;28;20550;-81
2023/12/08 04:43:51;;;;;;;28.80;25.10;;;;;;;1.66;100.00;100470.97;5050665;28;20028;-81
2023/12/08 04:46:18;;;;;;;30.15;25.38;;;;;;;1.65;100.00;100480.50;5039940;28;20560;-81
2023/12/08 04:48:43;;;;;;;28.33;24.98;;;;;;;1.68;100.00;100485.56;5034382;28;20029;-81
2023/12/08 04:51:08;;;;;;;30.35;25.13;;;;;;;1.69;100.00;100492.44;5032011;28;20481;-81
2023/12/08 04:53:34;;;;;;;30.35;25.52;;;;;;;1.71;100.00;100482.84;5051401;28;20052;-81
2023/12/08 04:55:59;;;;;;;29.65;25.70;;;;;;;1.72;100.00;100483.69;5046903;28;20539;-81
2023/12/08 04:58:25;;;;;;;28.55;24.77;;;;;;;1.72;100.00;100481.94;5045645;28;20029;-82
2023/12/08 05:00:51;;;;;;;30.10;24.88;;;;;;;1.73;100.00;100483.59;5065869;28;20046;-81
2023/12/08 05:03:16;;;;;;;30.42;26.20;;;;;;;1.73;100.00;100473.22;5053395;28;20384;-81
2023/12/08 05:05:42;;;;;;;29.98;25.13;;;;;;;1.73;100.00;100465.47;5034500;28;20505;-81
2023/12/08 05:08:07;;;;;;;32.50;25.95;;;;;;;1.74;100.00;100464.53;5039412;28;20107;-81
2023/12/08 05:10:33;;;;;;;28.85;24.52;;;;;;;1.76;100.00;100456.69;5051767;28;20049;-81
2023/12/08 05:12:58;;;;;;;30.83;25.33;;;;;;;1.76;100.00;100460.13;5051217;28;20411;-81
2023/12/08 05:15:24;;;;;;;31.73;25.35;;;;;;;1.76;100.00;100460.13;5051311;28;20040;-81
2023/12/08 05:17:49;;;;;;;29.98;24.83;;;;;;;1.79;100.00;100461.75;5039264;28;20033;-81
2023/12/08 05:20:15;;;;;;;30.10;25.10;;;;;;;1.79;100.00;100447.03;5042907;28;20025;-81
2023/12/08 05:22:40;;;;;;;30.40;25.30;;;;;;;1.80;100.00;100445.28;5049103;28;20511;-82
2023/12/08 05:25:08;;;;;;;30.88;25.15;;;;;;;1.81;100.00;100450.41;5051023;28;20112;-81
2023/12/08 05:27:33;;;;;;;29.33;25.45;;;;;;;1.83;100.00;100458.09;5047107;28;20017;-82
2023/12/08 05:29:58;;;;;;;28.50;24.92;;;;;;;1.82;100.00;100459.84;5050435;28;20028;-82
2023/12/08 05:32:24;;;;;;;30.75;25.08;;;;;;;1.84;100.00;100465.81;5050714;28;20500;-81
2023/12/08 05:34:49;;;;;;;32.60;25.42;;;;;;;1.86;100.00;100464.00;5044383;28;20485;-81
2023/12/08 05:37:18;;;;;;;31.33;25.38;;;;;;;1.87;100.00;100473.47;5048503;28;20489;-82
2023/12/08 05:39:44;;;;;;;31.48;25.38;;;;;;;1.89;100.00;100471.63;5046792;28;20033;-82
2023/12/08 05:42:09;;;;;;;32.20;24.92;;;;;;;1.91;100.00;100476.75;5048584;28;20021;-82
2023/12/08 05:44:35;;;;;;;30.52;25.63;;;;;;;1.93;100.00;100471.50;5043189;28;20029;-82
2023/12/08 05:47:00;;;;;;;30.48;25.13;;;;;;;1.94;100.00;100478.38;5037536;28;20648;-82
2023/12/08 05:49:25;;;;;;;30.70;25.73;;;;;;;1.97;100.00;100480.81;5041979;28;20112;-82
2023/12/08 05:51:51;;;;;;;32.08;25.35;;;;;;;1.97;100.00;100479.09;5050159;28;20055;-82
2023/12/08 05:54:16;;;;;;;33.25;24.77;;;;;;;2.01;100.00;100477.22;5045091;28;20326;-82
2023/12/08 05:56:41;;;;;;;29.80;25.40;;;;;;;2.03;100.00;100478.00;5044956;28;20033;-81
2023/12/08 05:59:07;;;;;;;31.38;25.80;;;;;;;2.05;100.00;100478.75;5048749;28;20024;-81
2023/12/08 06:01:32;;;;;;;30.67;25.55;;;;;;;2.07;100.00;100479.53;5051334;28;20044;-80
2023/12/08 06:03:58;;;;;;;31.90;25.73;;;;;;;2.09;100.00;100469.94;5047758;28;20013;-81
2023/12/08 06:06:23;;;;;;;28.70;24.30;;;;;;;2.10;100.00;100463.81;5047709;28;20041;-81
2023/12/08 06:08:49;;;;;;;34.00;26.00;;;;;;;2.10;100.00;100479.41;5049200;28;20049;-81
2023/12/08 06:11:14;;;;;;;34.65;24.98;;;;;;;2.13;100.00;100466.28;5048399;28;20034;-81
2023/12/08 06:13:39;;;;;;;31.70;24.98;;;;;;;2.15;100.00;100480.88;5039111;28;20131;-81
2023/12/08 06:16:05;;;;;;;29.58;25.02;;;;;;;2.15;100.00;100478.28;5047405;28;20112;-81
2023/12/08 06:18:30;;;;;;;32.70;24.83;;;;;;;2.15;100.00;100474.84;5036740;28;20040;-81
2023/12/08 06:20:56;;;;;;;35.17;25.98;;;;;;;2.18;100.00;100479.88;5047441;28;20028;-81
2023/12/08 06:23:22;;;;;;;33.33;26.35;;;;;;;2.19;100.00;100486.75;5037841;28;20025;-82
2023/12/08 06:25:47;;;;;;;33.55;25.42;;;;;;;2.21;100.00;100479.75;5046940;28;20398;-82
2023/12/08 06:28:13;;;;;;;35.03;25.80;;;;;;;2.25;100.00;100490.81;5049650;28;20028;-82
2023/12/08 06:30:38;;;;;;;36.25;26.67;;;;;;;2.25;100.00;100494.25;5049077;28;20477;-81
2023/12/08 06:33:04;;;;;;;37.53;26.33;;;;;;;2.27;100.00;100494.19;5049169;28;20164;-81
2023/12/08 06:35:29;;;;;;;36.20;25.60;;;;;;;2.28;100.00;100488.94;5050174;28;20433;-81
2023/12/08 06:37:54;;;;;;;32.08;25.92;;;;;;;2.28;100.00;100486.34;5041273;28;20588;-82
2023/12/08 06:40:20;;;;;;;35.47;25.85;;;;;;;2.31;100.00;100486.19;5041257;28;20024;-82
2023/12/08 06:42:45;;;;;;;33.63;25.63;;;;;;;2.34;100.00;100496.44;5047594;28;20025;-81
2023/12/08 06:45:10;;;;;;;36.28;26.60;;;;;;;2.35;100.00;100500.72;5048425;28;20032;-82
2023/12/08 06:47:36;;;;;;;37.67;27.42;;;;;;;2.36;100.00;100499.81;5047364;28;20024;-82
2023/12/08 06:50:01;;;;;;;36.13;26.88;;;;;;;2.40;100.00;100500.50;5047472;28;20112;-82
2023/12/08 06:52:26;;;;;;;35.55;27.08;;;;;;;2.41;100.00;100504.81;5050245;28;20100;-81
2023/12/08 06:54:52;;;;;;;37.30;27.55;;;;;;;2.43;100.00;100510.78;5048871;28;20523;-81
2023/12/08 06:57:17;;;;;;;35.85;27.45;;;;;;;2.45;100.00;100503.75;5035134;28;20039;-81
2023/12/08 06:59:42;;;;;;;36.05;27.25;;;;;;;2.45;100.00;100509.78;5040237;28;20032;-81
2023/12/08 07:02:08;;;;;;;37.45;28.17;;;;;;;2.46;100.00;100505.44;5047527;28;20534;-81
2023/12/08 07:04:33;;;;;;;38.45;27.38;;;;;;;2.45;100.00;100509.78;5047144;28;20032;-80
2023/12/08 07:06:58;;;;;;;41.30;28.45;;;;;;;2.48;100.00;100504.44;5047563;28;20029;-80
2023/12/08 07:09:24;;;;;;;39.67;28.20;;;;;;;2.48;100.00;100508.81;5048331;28;20128;-80
2023/12/08 07:11:49;;;;;;;39.30;27.77;;;;;;;2.49;100.00;100506.13;5048285;28;20029;-80
2023/12/08 07:14:14;;;;;;;38.75;27.80;;;;;;;2.50;100.00;100509.56;5031070;28;20033;-80
2023/12/08 07:16:43;;;;;;;39.83;28.33;;;;;;;2.51;100.00;100504.31;5031511;28;20533;-80
2023/12/08 07:19:09;;;;;;;39.90;29.25;;;;;;;2.54;100.00;100512.88;5040253;28;20029;-81
2023/12/08 07:21:41;;;;;;;39.05;28.15;;;;;;;2.55;100.00;100507.59;5042651;28;20032;-82
2023/12/08 07:24:06;;;;;;;43.38;29.60;;;;;;;2.57;100.00;100507.53;5046930;28;20388;-81
2023/12/08 07:26:32;;;;;;;38.17;28.52;;;;;;;2.59;100.00;100508.31;5047964;28;20035;-80
2023/12/08 07:29:00;;;;;;;39.65;28.23;;;;;;;2.60;100.00;100512.59;5047757;28;20469;-80
2023/12/08 07:31:25;;;;;;;41.05;28.73;;;;;;;2.62;100.00;100510.75;5040579;28;20086;-80
2023/12/08 07:33:51;;;;;;;42.05;30.02;;;;;;;2.62;100.00;100516.78;5044874;28;20555;-80
2023/12/08 07:36:16;;;;;;;40.60;29.67;;;;;;;2.64;100.00;100514.13;5044574;28;20104;-80
2023/12/08 07:38:41;;;;;;;41.13;30.50;;;;;;;2.67;100.00;100533.00;5044707;28;20035;-80
2023/12/08 07:41:07;;;;;;;46.08;30.42;;;;;;;2.68;100.00;100526.88;5044397;28;20022;-80
2023/12/08 07:43:32;;;;;;;49.78;31.67;;;;;;;2.68;100.00;100537.28;5047824;28;20033;-80
2023/12/08 07:45:59;;;;;;;46.55;31.73;;;;;;;2.70;100.00;100535.44;5047260;28;20112;-80
2023/12/08 07:48:25;;;;;;;53.80;32.25;;;;;;;2.72;100.00;100537.97;5047212;28;20033;-80
2023/12/08 07:50:50;;;;;;;51.20;32.17;;;;;;;2.73;100.00;100544.84;5047866;28;20033;-80
2023/12/08 07:53:16;;;;;;;45.80;31.65;;;;;;;2.76;100.00;100547.31;5052926;28;20024;-81
2023/12/08 07:55:41;;;;;;;53.75;32.28;;;;;;;2.76;100.00;100547.31;5040596;28;20022;-80
2023/12/08 07:58:06;;;;;;;54.10;33.15;;;;;;;2.78;100.00;100545.47;5043093;28;20370;-80
2023/12/08 08:00:32;;;;;;;57.92;34.63;;;;;;;2.78;100.00;100551.50;5051926;28;20495;-80
2023/12/08 08:02:58;;;;;;;62.47;36.22;;;;;;;2.79;100.00;100544.56;5053622;28;20021;-80
2023/12/08 08:05:24;;;;;;;58.72;35.63;;;;;;;2.81;100.00;100541.00;5052405;28;20032;-80
2023/12/08 08:07:50;;;;;;;64.28;37.13;;;;;;;2.83;100.00;100546.97;5051734;28;20048;-81
2023/12/08 08:10:18;;;;;;;67.80;39.42;;;;;;;2.88;100.00;100548.50;5051271;28;20138;-81
2023/12/08 08:12:43;;;;;;;76.50;41.03;;;;;;;2.92;100.00;100544.84;5051000;28;20025;-81
2023/12/08 08:15:09;;;;;;;71.28;40.08;;;;;;;2.94;100.00;100549.06;5048521;28;20389;-81
2023/12/08 08:17:34;;;;;;;75.45;43.13;;;;;;;2.97;100.00;100543.72;5050315;28;20604;-81
2023/12/08 08:20:00;;;;;;;78.20;43.97;;;;;;;3.01;100.00;100547.84;5042084;28;20370;-80
2023/12/08 08:22:25;;;;;;;85.43;44.13;;;;;;;3.05;100.00;100548.53;5054649;28;20014;-81
2023/12/08 08:24:50;;;;;;;90.45;46.78;;;;;;;3.07;100.00;100551.91;5040248;28;20033;-81
2023/12/08 08:27:16;;;;;;;86.05;46.80;;;;;;;3.12;100.00;100555.97;5050686;28;20056;-81
2023/12/08 08:29:41;;;;;;;89.20;48.25;;;;;;;3.15;100.00;100552.38;5049033;28;20071;-81
2023/12/08 08:32:06;;;;;;;92.07;48.13;;;;;;;3.20;100.00;100544.34;5051021;28;20025;-81
2023/12/08 08:34:32;;;;;;;92.93;47.95;;;;;;;3.24;100.00;100556.31;5052004;28;20056;-80
2023/12/08 08:37:00;;;;;;;93.22;48.58;;;;;;;3.30;100.00;100553.41;5043696;28;20119;-81
2023/12/08 08:39:25;;;;;;;93.80;48.40;;;;;;;3.31;100.00;100555.94;5039766;28;20473;-82
2023/12/08 08:41:52;;;;;;;85.72;45.58;;;;;;;3.35;100.00;100554.88;5046193;28;20032;-81
2023/12/08 08:44:17;;;;;;;92.20;45.67;;;;;;;3.42;100.00;100563.22;5050128;28;20261;-80
2023/12/08 08:46:44;;;;;;;84.47;44.28;;;;;;;3.49;100.00;100576.75;5048679;28;20029;-80
2023/12/08 08:49:10;;;;;;;91.32;43.90;;;;;;;3.50;100.00;100574.06;5055405;28;20025;-80
2023/12/08 08:51:35;;;;;;;84.68;42.50;;;;;;;3.57;100.00;100580.66;5047949;28;20541;-82
2023/12/08 08:54:02;;;;;;;80.28;41.22;;;;;;;3.60;100.00;100574.44;5047164;28;20080;-82
2023/12/08 08:56:27;;;;;;;84.68;39.90;;;;;;;3.66;100.00;100575.03;5048743;28;20024;-82
2023/12/08 08:58:53;;;;;;;82.45;39.65;;;;;;;3.70;100.00;100581.75;5049097;28;20032;-82
2023/12/08 09:01:18;;;;;;;85.95;40.42;;;;;;;3.75;100.00;100584.97;5053352;28;20020;-82
2023/12/08 09:03:43;;;;;;;77.63;39.05;;;;;;;3.81;100.00;100588.16;5041123;28;20033;-81
2023/12/08 09:06:09;;;;;;;82.43;38.20;;;;;;;3.85;100.00;100594.91;5053548;28;20037;-85
2023/12/08 09:08:34;;;;;;;81.13;37.85;;;;;;;3.89;100.00;100586.03;5050552;28;20025;-83
2023/12/08 09:10:59;;;;;;;77.85;37.13;;;;;;;3.95;100.00;100593.50;5069982;28;20040;-83
2023/12/08 09:13:25;;;;;;;84.25;38.35;;;;;;;3.99;100.00;100595.03;5072202;28;20020;-83
2023/12/08 09:15:51;;;;;;;75.05;35.60;;;;;;;4.03;100.00;100594.00;5049556;28;20033;-83
2023/12/08 09:18:16;;;;;;;84.07;38.38;;;;;;;4.07;100.00;100588.53;5049595;28;20017;-83
2023/12/08 09:20:43;;;;;;;82.82;37.13;;;;;;;4.11;100.00;100591.84;5052103;28;20488;-83
2023/12/08 09:23:09;;;;;;;80.28;37.45;;;;;;;4.15;100.00;100597.72;5050678;28;20038;-83
2023/12/08 09:25:34;;;;;;;85.35;38.08;;;;;;;4.16;100.00;100592.44;5039846;28;20055;-82
2023/12/08 09:28:00;;;;;;;85.60;38.08;;;;;;;4.20;100.00;100586.13;5045553;28;20476;-83
2023/12/08 09:30:27;;;;;;;78.53;35.22;;;;;;;4.25;100.00;100593.72;5047221;28;20046;-82
2023/12/08 09:32:52;;;;;;;78.05;35.92;;;;;;;4.28;100.00;100597.00;5041908;28;20554;-81
2023/12/08 09:35:18;;;;;;;87.45;37.50;;;;;;;4.33;100.00;100601.97;5046195;28;20103;-81
2023/12/08 09:37:43;;;;;;;80.43;36.35;;;;;;;4.34;100.00;100609.69;5047904;28;20556;-81
2023/12/08 09:40:11;;;;;;;80.00;35.08;;;;;;;4.37;100.00;100604.31;5045523;28;20031;-82
2023/12/08 09:42:42;;;;;;;81.03;35.97;;;;;;;4.42;100.00;100611.09;5046372;28;20025;-81
2023/12/08 09:45:11;;;;;;;74.07;34.88;;;;;;;4.44;100.00;100614.44;5047681;28;20104;-81
2023/12/08 09:47:36;;;;;;;80.47;35.08;;;;;;;4.48;100.00;100608.16;5049067;28;20029;-81
2023/12/08 09:50:06;;;;;;;80.03;35.90;;;;;;;4.49;100.00;100613.28;5049349;28;20488;-81
2023/12/08 09:52:36;;;;;;;77.00;34.30;;;;;;;4.56;100.00;100613.78;5048136;28;20104;-81
2023/12/08 09:55:03;;;;;;;82.18;35.42;;;;;;;4.59;100.00;100617.06;5043033;28;20067;-81
2023/12/08 09:57:29;;;;;;;74.78;34.50;;;;;;;4.66;100.00;100617.59;5043162;28;20021;-81
2023/12/08 10:00:13;;;;;;;73.30;34.33;;;;;;;4.72;100.00;100630.28;5043807;28;20029;-81
2023/12/08 10:02:40;;;;;;;74.40;35.13;;;;;;;4.79;100.00;100626.44;5047359;28;20025;-82
2023/12/08 10:05:06;;;;;;;74.53;36.22;;;;;;;4.86;100.00;100629.56;5047201;28;20366;-81
2023/12/08 10:07:34;;;;;;;73.55;34.92;;;;;;;4.90;100.00;100625.88;5044723;28;20052;-82
2023/12/08 10:10:00;;;;;;;76.75;35.72;;;;;;;4.96;100.00;100613.34;5048006;28;20520;-81
2023/12/08 10:12:27;;;;;;;79.15;36.40;;;;;;;5.01;100.00;100616.53;5041134;28;20017;-82
2023/12/08 10:14:58;;;;;;;81.25;35.22;;;;;;;5.07;100.00;100617.97;5047317;28;20043;-82
2023/12/08 10:17:23;;;;;;;74.07;32.72;;;;;;;5.13;100.00;100608.97;5043406;28;20033;-82
2023/12/08 10:19:52;;;;;;;73.50;34.05;;;;;;;5.19;100.00;100613.84;5047150;28;20050;-82
2023/12/08 10:22:17;;;;;;;85.15;34.13;;;;;;;5.24;100.00;100612.69;5045783;28;20051;-81
2023/12/08 10:24:43;;;;;;;69.25;32.75;;;;;;;5.30;100.00;100624.53;5050060;28;20028;-82
2023/12/08 10:27:09;;;;;;;71.07;32.47;;;;;;;5.34;100.00;100628.66;5042900;28;20021;-82
2023/12/08 10:29:34;;;;;;;79.20;34.80;;;;;;;5.35;100.00;100625.13;5046915;28;20397;-82
2023/12/08 10:32:04;;;;;;;72.35;32.90;;;;;;;5.37;100.00;100623.25;5043920;28;20032;-81
2023/12/08 10:34:30;;;;;;;72.20;32.35;;;;;;;5.41;100.00;100629.97;5036390;28;20505;-82
2023/12/08 10:36:56;;;;;;;67.97;31.50;;;;;;;5.44;100.00;100628.97;5048816;28;20029;-82
2023/12/08 10:39:22;;;;;;;77.28;33.78;;;;;;;5.47;100.00;100631.41;5046533;28;20055;-81
2023/12/08 10:41:55;;;;;;;80.47;34.08;;;;;;;5.52;100.00;100637.19;5047404;28;20025;-82
2023/12/08 10:44:21;;;;;;;;;;;;;;;5.58;100.00;100627.25;5045832;28;20083;-81
2023/12/08 10:46:49;;;;;;;78.30;33.95;;;;;;;5.58;100.00;100636.84;5044623;28;20378;-83
2023/12/08 10:49:19;;;;;;;80.07;33.35;;;;;;;5.61;100.00;100626.25;5046842;28;20064;-82
2023/12/08 10:51:47;;;;;;;79.88;34.17;;;;;;;5.63;100.00;100625.25;5048375;28;20167;-83
2023/12/08 10:54:15;;;;;;;80.68;34.03;;;;;;;5.68;100.00;100626.75;5048731;28;20059;-83
2023/12/08 10:56:44;;;;;;;80.70;34.67;;;;;;;5.72;100.00;100612.59;5036306;28;20037;-83
2023/12/08 10:59:10;;;;;;;79.35;35.17;;;;;;;5.76;100.00;100608.88;5041229;28;20082;-82
2023/12/08 11:01:37;;;;;;;77.50;32.70;;;;;;;5.79;100.00;100619.13;5045203;28;20017;-82
2023/12/08 11:04:10;;;;;;;75.30;32.20;;;;;;;5.81;100.00;100625.94;5044764;28;20031;-82